地図

経路データ

SID SEASON NUMBER BASIN SUBBASIN NAME ISO_TIME NATURE LAT LON WMO_WIND WMO_PRES WMO_AGENCY TRACK_TYPE DIST2LAND LANDFALL IFLAG USA_AGENCY USA_ATCF_ID USA_LAT USA_LON USA_RECORD USA_STATUS USA_WIND USA_PRES USA_SSHS USA_R34_NE USA_R34_SE USA_R34_SW USA_R34_NW USA_R50_NE USA_R50_SE USA_R50_SW USA_R50_NW USA_R64_NE USA_R64_SE USA_R64_SW USA_R64_NW USA_POCI USA_ROCI USA_RMW USA_EYE TOKYO_LAT TOKYO_LON TOKYO_GRADE TOKYO_WIND TOKYO_PRES TOKYO_R50_DIR TOKYO_R50_LONG TOKYO_R50_SHORT TOKYO_R30_DIR TOKYO_R30_LONG TOKYO_R30_SHORT TOKYO_LAND CMA_LAT CMA_LON CMA_CAT CMA_WIND CMA_PRES HKO_LAT HKO_LON HKO_CAT HKO_WIND HKO_PRES NEWDELHI_LAT NEWDELHI_LON NEWDELHI_GRADE NEWDELHI_WIND NEWDELHI_PRES NEWDELHI_CI NEWDELHI_DP NEWDELHI_POCI REUNION_LAT REUNION_LON REUNION_TYPE REUNION_WIND REUNION_PRES REUNION_TNUM REUNION_CI REUNION_RMW REUNION_R34_NE REUNION_R34_SE REUNION_R34_SW REUNION_R34_NW REUNION_R50_NE REUNION_R50_SE REUNION_R50_SW REUNION_R50_NW REUNION_R64_NE REUNION_R64_SE REUNION_R64_SW REUNION_R64_NW BOM_LAT BOM_LON BOM_TYPE BOM_WIND BOM_PRES BOM_TNUM BOM_CI BOM_RMW BOM_R34_NE BOM_R34_SE BOM_R34_SW BOM_R34_NW BOM_R50_NE BOM_R50_SE BOM_R50_SW BOM_R50_NW BOM_R64_NE BOM_R64_SE BOM_R64_SW BOM_R64_NW BOM_ROCI BOM_POCI BOM_EYE BOM_POS_METHOD BOM_PRES_METHOD NADI_LAT NADI_LON NADI_CAT NADI_WIND NADI_PRES WELLINGTON_LAT WELLINGTON_LON WELLINGTON_WIND WELLINGTON_PRES DS824_LAT DS824_LON DS824_STAGE DS824_WIND DS824_PRES TD9636_LAT TD9636_LON TD9636_STAGE TD9636_WIND TD9636_PRES TD9635_LAT TD9635_LON TD9635_WIND TD9635_PRES TD9635_ROCI NEUMANN_LAT NEUMANN_LON NEUMANN_CLASS NEUMANN_WIND NEUMANN_PRES MLC_LAT MLC_LON MLC_CLASS MLC_WIND MLC_PRES USA_GUST BOM_GUST BOM_GUST_PER REUNION_GUST REUNION_GUST_PER USA_SEAHGT USA_SEARAD_NE USA_SEARAD_SE USA_SEARAD_SW USA_SEARAD_NW STORM_SPEED STORM_DIR
1982221N10236 1982 58 EP MM KRISTY 1982-08-08 18:00:00 TS 9.50000 -123.700 30 hurdat_epa main 2092 2092 O_________O___ hurdat_epa EP111982 9.50000 -123.700 TD 30 -1 9.50000 -123.700 1 30 17 269
1982221N10236 1982 58 EP MM KRISTY 1982-08-08 21:00:00 TS 9.48148 -124.560 main 2155 2155 P_________P___ EP111982 9.47799 -124.563 TD 30 -1 9.49197 -124.553 1 30 17 270
1982221N10236 1982 58 EP MM KRISTY 1982-08-09 00:00:00 TS 9.50000 -125.400 30 hurdat_epa main 2208 2208 O_________O___ hurdat_epa EP111982 9.50000 -125.400 TD 30 -1 9.50000 -125.400 1 30 16 273
1982221N10236 1982 58 EP MM KRISTY 1982-08-09 03:00:00 TS 9.57873 -126.209 main 2254 2254 P_________P___ EP111982 9.59221 -126.200 TD 32 -1 9.53828 -126.235 1 33 16 276
1982221N10236 1982 58 EP MM KRISTY 1982-08-09 06:00:00 TS 9.67624 -127.015 35 hurdat_epa main 2302 2302 O_________P___ hurdat_epa EP111982 9.70000 -127.000 TS 35 0 9.60497 -127.060 1 37 16 276
1982221N10236 1982 58 EP MM KRISTY 1982-08-09 09:00:00 TS 9.73588 -127.847 main 2361 2361 P_________P___ EP111982 9.74979 -127.835 TS 40 0 9.69418 -127.881 1 41 17 274
1982221N10236 1982 58 EP MM KRISTY 1982-08-09 12:00:00 TS 9.80000 -128.700 45 hurdat_epa main 2421 2421 O_________O___ hurdat_epa EP111982 9.80000 -128.700 TS 45 0 9.80000 -128.700 2 45 17 275
1982221N10236 1982 58 EP MM KRISTY 1982-08-09 15:00:00 TS 9.88735 -129.597 main 2482 2482 P_________P___ EP111982 9.88499 -129.615 TS 50 0 9.89443 -129.542 2 47 18 277
1982221N10236 1982 58 EP MM KRISTY 1982-08-09 18:00:00 TS 10.0013 -130.470 55 hurdat_epa main 2546 2546 O_________P___ hurdat_epa EP111982 10.0000 -130.500 TS 55 0 10.0053 -130.381 2 50 17 279
1982221N10236 1982 58 EP MM KRISTY 1982-08-09 21:00:00 TS 10.1356 -131.256 main 2603 2595 P_________P___ EP111982 10.1347 -131.273 TS 55 0 10.1385 -131.205 2 52 15 281
1982221N10236 1982 58 EP MM KRISTY 1982-08-10 00:00:00 TS 10.3000 -132.000 55 hurdat_epa main 2635 2575 O_________O___ hurdat_epa EP111982 10.3000 -132.000 TS 55 0 10.3000 -132.000 2 55 15 284
1982221N10236 1982 58 EP MM KRISTY 1982-08-10 03:00:00 TS 10.5154 -132.759 main 2565 2487 P_________P___ EP111982 10.5149 -132.757 TS 60 0 10.5169 -132.765 2 60 15 285
1982221N10236 1982 58 EP MM KRISTY 1982-08-10 06:00:00 TS 10.7000 -133.500 65 hurdat_epa main 2487 2413 O_________O___ hurdat_epa EP111982 10.7000 -133.500 HU 65 1 10.7000 -133.500 3 65 14 281
1982221N10236 1982 58 EP MM KRISTY 1982-08-10 09:00:00 TS 10.7876 -134.195 main 2413 2345 P_________P___ EP111982 10.7872 -134.193 HU 65 1 10.7888 -134.203 3 65 14 274
1982221N10236 1982 58 EP MM KRISTY 1982-08-10 12:00:00 TS 10.8000 -134.900 65 hurdat_epa main 2345 2277 O_________O___ hurdat_epa EP111982 10.8000 -134.900 HU 65 1 10.8000 -134.900 4 65 15 269
1982221N10236 1982 58 EP MM KRISTY 1982-08-10 15:00:00 TS 10.7694 -135.678 main 2267 2205 P_________P___ EP111982 10.7800 -135.700 HU 65 1 10.7377 -135.611 4 63 15 266
1982221N10236 1982 58 EP MM KRISTY 1982-08-10 18:00:00 TS 10.6799 -136.460 65 hurdat_epa main 2195 2144 O_________P___ hurdat_epa EP111982 10.7000 -136.500 HU 65 1 10.6195 -136.340 4 62 15 261
1982221N10236 1982 58 EP MM KRISTY 1982-08-10 21:00:00 TS 10.5407 -137.169 main 2140 2080 P_________P___ EP111982 10.5571 -137.193 HU 62 0 10.4915 -137.099 4 61 14 259
1982221N10236 1982 58 EP MM KRISTY 1982-08-11 00:00:00 TS 10.4000 -137.900 60 hurdat_epa main 2080 2011 O_________O___ hurdat_epa EP111982 10.4000 -137.900 TS 60 0 10.4000 -137.900 2 60 15 261
1982221N10236 1982 58 EP MM KRISTY 1982-08-11 03:00:00 TS 10.2870 -138.717 main 2011 1929 P_________P___ EP111982 10.2473 -138.713 TS 57 0 10.4061 -138.728 2 58 17 265
1982221N10236 1982 58 EP MM KRISTY 1982-08-11 06:00:00 TS 10.2634 -139.601 55 hurdat_epa main 1929 1841 O_________P___ hurdat_epa EP111982 10.2000 -139.600 TS 55 0 10.4538 -139.602 2 57 18 274
1982221N10236 1982 58 EP CP KRISTY 1982-08-11 09:00:00 TS 10.4140 -140.515 main 1841 1748 P_________P___ EP111982 10.3771 -140.512 TS 55 0 10.5246 -140.525 2 56 19 280
1982221N10236 1982 58 EP CP KRISTY 1982-08-11 12:00:00 TS 10.6000 -141.500 55 hurdat_epa main 1740 1646 O_________O___ hurdat_epa EP111982 10.6000 -141.500 TS 55 0 10.6000 -141.500 2 55 20 277
1982221N10236 1982 58 EP CP KRISTY 1982-08-11 15:00:00 TS 10.6623 -142.576 main 1637 1553 P_________P___ EP111982 10.6724 -142.585 TS 50 0 10.6376 -142.529 2 52 21 273
1982221N10236 1982 58 EP CP KRISTY 1982-08-11 18:00:00 TS 10.6952 -143.680 45 hurdat_epa main 1545 1464 O_________P___ hurdat_epa EP111982 10.7000 -143.700 TS 45 0 10.6772 -143.606 2 50 21 272
1982221N10236 1982 58 EP CP KRISTY 1982-08-11 21:00:00 TS 10.7453 -144.747 main 1464 1378 P_________P___ EP111982 10.7496 -144.758 TS 45 0 10.7281 -144.704 2 47 21 273
1982221N10236 1982 58 EP CP KRISTY 1982-08-12 00:00:00 TS 10.8000 -145.800 45 hurdat_epa main 1370 1295 O_________O___ hurdat_epa EP111982 10.8000 -145.800 TS 45 0 10.8000 -145.800 2 45 21 273
1982221N10236 1982 58 EP CP KRISTY 1982-08-12 03:00:00 TS 10.8391 -146.860 main 1288 1210 P_________P___ EP111982 10.8271 -146.850 TS 45 0 10.8869 -146.898 2 45 21 273
1982221N10236 1982 58 EP CP KRISTY 1982-08-12 06:00:00 TS 10.9195 -147.916 45 hurdat_epa main 1210 1127 O_________P___ hurdat_epa EP111982 10.9000 -147.900 TS 45 0 10.9973 -147.982 2 45 21 277
1982221N10236 1982 58 EP CP KRISTY 1982-08-12 09:00:00 TS 11.0825 -148.965 main 1120 1049 P_________P___ EP111982 11.0696 -148.943 TS 45 0 11.1340 -149.026 2 45 21 281
1982221N10236 1982 58 EP CP KRISTY 1982-08-12 12:00:00 TS 11.3000 -150.000 45 hurdat_epa main 1043 969 O_________O___ hurdat_epa EP111982 11.3000 -150.000 TS 45 0 11.3000 -150.000 2 45 21 282
1982221N10236 1982 58 EP CP KRISTY 1982-08-12 15:00:00 TS 11.5385 -151.082 main 964 888 P_________P___ EP111982 11.5505 -151.182 TS 47 0 11.4911 -150.912 2 46 21 284
1982221N10236 1982 58 EP CP KRISTY 1982-08-12 18:00:00 TS 11.7823 -152.030 50 hurdat_epa main 888 840 O_________P___ hurdat_epa EP111982 11.8000 -152.200 TS 50 0 11.7113 -151.749 2 47 16 286
1982221N10236 1982 58 EP CP KRISTY 1982-08-12 21:00:00 TS 11.9956 -152.677 main 836 796 P_________P___ EP111982 12.0066 -152.775 TS 50 0 11.9509 -152.512 2 48 12 290
1982221N10236 1982 58 EP CP KRISTY 1982-08-13 00:00:00 TS 12.2000 -153.200 50 hurdat_epa main 796 755 O_________O___ hurdat_epa EP111982 12.2000 -153.200 TS 50 0 12.2000 -153.200 2 50 12 290
1982221N10236 1982 58 EP CP KRISTY 1982-08-13 03:00:00 TS 12.3964 -153.815 main 755 718 P_________P___ EP111982 12.3851 -153.800 TS 50 0 12.4419 -153.846 2 51 13 290
1982221N10236 1982 58 EP CP KRISTY 1982-08-13 06:00:00 TS 12.6183 -154.404 50 hurdat_epa main 718 676 O_________P___ hurdat_epa EP111982 12.6000 -154.400 TS 50 0 12.6915 -154.420 2 52 12 295
1982221N10236 1982 58 EP CP KRISTY 1982-08-13 09:00:00 TS 12.9029 -154.919 main 676 638 P_________P___ EP111982 12.8923 -154.915 TS 52 0 12.9453 -154.934 2 53 11 301
1982221N10236 1982 58 EP CP KRISTY 1982-08-13 12:00:00 TS 13.2000 -155.400 55 hurdat_epa main 638 615 O_________O___ hurdat_epa EP111982 13.2000 -155.400 TS 55 0 13.2000 -155.400 2 55 11 300
1982221N10236 1982 58 EP CP KRISTY 1982-08-13 15:00:00 TS 13.4576 -155.922 main 604 585 P_________P___ EP111982 13.4576 -155.930 TS 57 0 13.4579 -155.888 2 58 11 298
1982221N10236 1982 58 EP CP KRISTY 1982-08-13 18:00:00 TS 13.7030 -156.385 60 hurdat_epa main 586 567 O_________P___ hurdat_epa EP111982 13.7000 -156.400 TS 60 0 13.7148 -156.327 2 62 9 302
1982221N10236 1982 58 EP CP KRISTY 1982-08-13 21:00:00 TS 13.9528 -156.743 main 558 543 P_________P___ EP111982 13.9499 -156.753 TS 65 1 13.9643 -156.703 2 66 8 310
1982221N10236 1982 58 EP CP KRISTY 1982-08-14 00:00:00 TS 14.2000 -157.000 70 hurdat_epa main 543 525 O_________O___ hurdat_epa EP111982 14.2000 -157.000 HU 70 1 14.2000 -157.000 4 70 7 320
1982221N10236 1982 58 EP CP KRISTY 1982-08-14 03:00:00 TS 14.4580 -157.187 main 517 499 P_________P___ EP111982 14.4649 -157.180 HU 67 1 14.4302 -157.213 4 68 6 329
1982221N10236 1982 58 EP CP KRISTY 1982-08-14 06:00:00 TS 14.6889 -157.310 65 hurdat_epa main 499 482 O_________P___ hurdat_epa EP111982 14.7000 -157.300 HU 65 1 14.6445 -157.348 4 67 5 331
1982221N10236 1982 58 EP CP KRISTY 1982-08-14 09:00:00 TS 14.8593 -157.413 main 482 476 P_________P___ EP111982 14.8650 -157.408 HU 65 1 14.8366 -157.434 4 66 4 329
1982221N10236 1982 58 EP CP KRISTY 1982-08-14 12:00:00 TS 15.0000 -157.500 65 hurdat_epa main 476 466 O_________O___ hurdat_epa EP111982 15.0000 -157.500 HU 65 1 15.0000 -157.500 4 65 4 328
1982221N10236 1982 58 EP CP KRISTY 1982-08-14 15:00:00 TS 15.1577 -157.604 main 460 455 P_________P___ EP111982 15.1650 -157.607 HU 72 1 15.1287 -157.590 4 67 3 327
1982221N10236 1982 58 EP CP KRISTY 1982-08-14 18:00:00 TS 15.2860 -157.693 80 hurdat_epa main 455 455 O_________P___ hurdat_epa EP111982 15.3000 -157.700 HU 80 1 15.2299 -157.665 4 70 2 324
1982221N10236 1982 58 EP CP KRISTY 1982-08-14 21:00:00 TS 15.3492 -157.753 main 460 450 P_________P___ EP111982 15.3575 -157.758 HU 77 1 15.3162 -157.733 4 72 2 318
1982221N10236 1982 58 EP CP KRISTY 1982-08-15 00:00:00 TS 15.4000 -157.800 75 hurdat_epa main 450 441 O_________O___ hurdat_epa EP111982 15.4000 -157.800 HU 75 1 15.4000 -157.800 4 75 2 327
1982221N10236 1982 58 EP CP KRISTY 1982-08-15 03:00:00 TS 15.4821 -157.840 main 441 436 P_________P___ EP111982 15.4925 -157.843 HU 75 1 15.4632 -157.831 4 75 2 335
1982221N10236 1982 58 EP CP KRISTY 1982-08-15 06:00:00 TS 15.5864 -157.894 75 hurdat_epa main 436 427 O_________P___ hurdat_epa EP111982 15.6000 -157.900 HU 75 1 15.5321 -157.868 4 75 2 332
1982221N10236 1982 58 EP CP KRISTY 1982-08-15 09:00:00 TS 15.6854 -157.960 main 433 424 P_________P___ EP111982 15.6549 -157.963 HU 75 1 15.6350 -157.947 4 75 3 324
1982221N10236 1982 58 EP CP KRISTY 1982-08-15 12:00:00 TS 15.8600 -158.100 75 hurdat_epa main 421 408 O_________O___ hurdat_epa EP111982 15.8000 -158.100 HU 75 1 15.8000 -158.100 4 75 6 323
1982221N10236 1982 58 EP CP KRISTY 1982-08-15 15:00:00 TS 16.1950 -158.351 main 416 407 P_________P___ EP111982 16.1775 -158.355 HU 65 1 16.0926 -158.338 4 67 9 321
1982221N10236 1982 58 EP CP KRISTY 1982-08-15 18:00:00 TS 16.5684 -158.691 55 hurdat_epa main 407 407 O_________P___ hurdat_epa EP111982 16.6000 -158.700 TS 55 0 16.4421 -158.657 4 60 10 314
1982221N10236 1982 58 EP CP KRISTY 1982-08-15 21:00:00 TS 16.8585 -159.058 main 418 418 P_________P___ EP111982 16.8798 -159.055 TS 50 0 16.7956 -159.047 4 52 9 304
1982221N10236 1982 58 EP CP KRISTY 1982-08-16 00:00:00 TS 17.1000 -159.500 45 hurdat_epa main 441 441 O_________O___ hurdat_epa EP111982 17.1000 -159.500 TS 45 0 17.1000 -159.500 2 45 11 296
1982221N10236 1982 58 EP CP KRISTY 1982-08-16 03:00:00 TS 17.3224 -160.042 main 477 477 P_________P___ EP111982 17.3302 -160.085 TS 42 0 17.2914 -160.029 2 42 11 290
1982221N10236 1982 58 EP CP KRISTY 1982-08-16 06:00:00 TS 17.4852 -160.622 40 hurdat_epa main 499 499 O_________P___ hurdat_epa EP111982 17.5000 -160.700 TS 40 0 17.4262 -160.608 2 40 11 283
1982221N10236 1982 58 EP CP KRISTY 1982-08-16 09:00:00 TS 17.5625 -161.175 main 513 513 P_________P___ EP111982 17.5724 -161.245 TS 37 0 17.5227 -161.182 2 37 10 277
1982221N10236 1982 58 EP CP KRISTY 1982-08-16 12:00:00 TS 17.6000 -161.660 35 hurdat_epa main 530 530 O_________O___ hurdat_epa EP111982 17.6000 -161.700 TS 35 0 17.6000 -161.700 2 35 8 276
1982221N10236 1982 58 EP CP KRISTY 1982-08-16 15:00:00 TS 17.6487 -162.024 main 543 533 P_________P___ EP111982 17.6423 -162.023 TS 32 -1 17.6744 -162.121 2 32 7 280
1982221N10236 1982 58 EP CP KRISTY 1982-08-16 18:00:00 TS 17.7098 -162.332 30 hurdat_epa main 547 547 O_________P___ hurdat_epa EP111982 17.7000 -162.300 TD 30 -1 17.7492 -162.460 2 30 6 284
1982221N10236 1982 58 EP CP KRISTY 1982-08-16 21:00:00 TS 17.7971 -162.657 main 559 555 P_________P___ EP111982 17.7902 -162.630 TD 27 -1 17.8246 -162.744 2 27 7 287
1982221N10236 1982 58 EP CP KRISTY 1982-08-17 00:00:00 TS 17.9000 -163.000 25 hurdat_epa main 567 O_________O___ hurdat_epa EP111982 17.9000 -163.000 TD 25 -1 17.9000 -163.000 1 25 7 287

IBTrACS Databaseについて

本データベースは、米国NOAAが公開する1842年以降の世界の熱帯低気圧のベストトラックデータアーカイブInternational Best Track Archive for Climate Stewardship (IBTrACS)を、ウェブで閲覧しやすい形式に変換したものです。

最終更新日:2021-11-26